sensor_id;sensor_type;location;lat;lon;timestamp;temperature;humidity
2967;DHT22;1493;51.496;7.210;2023-03-11T00:00:54;2.20;99.90
2967;DHT22;1493;51.496;7.210;2023-03-11T00:03:21;2.30;99.90
2967;DHT22;1493;51.496;7.210;2023-03-11T00:05:49;2.30;99.90
2967;DHT22;1493;51.496;7.210;2023-03-11T00:08:18;2.30;99.90
2967;DHT22;1493;51.496;7.210;2023-03-11T00:10:46;2.30;99.90
2967;DHT22;1493;51.496;7.210;2023-03-11T00:13:15;2.40;99.90
2967;DHT22;1493;51.496;7.210;2023-03-11T00:15:43;2.40;99.90
2967;DHT22;1493;51.496;7.210;2023-03-11T00:18:10;2.40;99.90
2967;DHT22;1493;51.496;7.210;2023-03-11T00:20:38;2.30;99.90
2967;DHT22;1493;51.496;7.210;2023-03-11T00:23:06;2.30;99.90
2967;DHT22;1493;51.496;7.210;2023-03-11T00:25:35;2.20;99.90
2967;DHT22;1493;51.496;7.210;2023-03-11T00:28:03;2.20;99.90
2967;DHT22;1493;51.496;7.210;2023-03-11T00:30:33;2.10;99.90
2967;DHT22;1493;51.496;7.210;2023-03-11T00:33:00;2.10;99.90
2967;DHT22;1493;51.496;7.210;2023-03-11T00:35:29;2.10;99.90
2967;DHT22;1493;51.496;7.210;2023-03-11T00:37:58;2.20;99.90
2967;DHT22;1493;51.496;7.210;2023-03-11T00:40:27;2.20;99.90
2967;DHT22;1493;51.496;7.210;2023-03-11T00:42:54;2.20;99.90
2967;DHT22;1493;51.496;7.210;2023-03-11T00:45:20;2.20;99.90
2967;DHT22;1493;51.496;7.210;2023-03-11T00:47:49;2.30;99.90
2967;DHT22;1493;51.496;7.210;2023-03-11T00:50:18;2.30;99.90
2967;DHT22;1493;51.496;7.210;2023-03-11T00:52:47;2.30;99.90
2967;DHT22;1493;51.496;7.210;2023-03-11T00:55:15;2.40;99.90
2967;DHT22;1493;51.496;7.210;2023-03-11T00:57:43;2.40;99.90
2967;DHT22;1493;51.496;7.210;2023-03-11T01:00:13;2.40;99.90
2967;DHT22;1493;51.496;7.210;2023-03-11T01:02:40;2.40;99.90
2967;DHT22;1493;51.496;7.210;2023-03-11T01:05:09;2.40;99.90
2967;DHT22;1493;51.496;7.210;2023-03-11T01:07:36;2.40;99.90
2967;DHT22;1493;51.496;7.210;2023-03-11T01:10:04;2.40;99.90
2967;DHT22;1493;51.496;7.210;2023-03-11T01:12:31;2.40;99.90
2967;DHT22;1493;51.496;7.210;2023-03-11T01:14:57;2.40;99.90
2967;DHT22;1493;51.496;7.210;2023-03-11T01:17:24;2.40;99.90
2967;DHT22;1493;51.496;7.210;2023-03-11T01:19:51;2.40;99.90
2967;DHT22;1493;51.496;7.210;2023-03-11T01:22:19;2.40;99.90
2967;DHT22;1493;51.496;7.210;2023-03-11T01:24:46;2.30;99.90
2967;DHT22;1493;51.496;7.210;2023-03-11T01:27:13;2.30;99.90
2967;DHT22;1493;51.496;7.210;2023-03-11T01:29:40;2.30;99.90
2967;DHT22;1493;51.496;7.210;2023-03-11T01:32:07;2.20;99.90
2967;DHT22;1493;51.496;7.210;2023-03-11T01:34:34;2.30;99.90
2967;DHT22;1493;51.496;7.210;2023-03-11T01:37:00;2.20;99.90
2967;DHT22;1493;51.496;7.210;2023-03-11T01:39:29;2.30;99.90
2967;DHT22;1493;51.496;7.210;2023-03-11T01:41:55;2.30;99.90
2967;DHT22;1493;51.496;7.210;2023-03-11T01:44:22;2.40;99.90
2967;DHT22;1493;51.496;7.210;2023-03-11T01:49:59;2.30;99.90
2967;DHT22;1493;51.496;7.210;2023-03-11T01:52:26;2.40;99.90
2967;DHT22;1493;51.496;7.210;2023-03-11T01:54:55;2.40;99.90
2967;DHT22;1493;51.496;7.210;2023-03-11T01:57:22;2.40;99.90
2967;DHT22;1493;51.496;7.210;2023-03-11T01:59:52;2.40;99.90
2967;DHT22;1493;51.496;7.210;2023-03-11T02:02:24;2.40;99.90
2967;DHT22;1493;51.496;7.210;2023-03-11T02:04:52;2.30;99.90
2967;DHT22;1493;51.496;7.210;2023-03-11T02:07:20;2.20;99.90
2967;DHT22;1493;51.496;7.210;2023-03-11T02:09:47;2.10;99.90
2967;DHT22;1493;51.496;7.210;2023-03-11T02:12:15;2.10;99.90
2967;DHT22;1493;51.496;7.210;2023-03-11T02:14:44;2.10;99.90
2967;DHT22;1493;51.496;7.210;2023-03-11T02:17:11;2.10;99.90
2967;DHT22;1493;51.496;7.210;2023-03-11T02:19:48;2.20;99.90
2967;DHT22;1493;51.496;7.210;2023-03-11T02:22:17;2.20;99.90
2967;DHT22;1493;51.496;7.210;2023-03-11T02:24:53;2.10;99.90
2967;DHT22;1493;51.496;7.210;2023-03-11T02:27:25;2.20;99.90
2967;DHT22;1493;51.496;7.210;2023-03-11T02:29:52;2.20;99.90
2967;DHT22;1493;51.496;7.210;2023-03-11T02:32:21;2.10;99.90
2967;DHT22;1493;51.496;7.210;2023-03-11T02:34:48;2.00;99.90
2967;DHT22;1493;51.496;7.210;2023-03-11T02:37:16;1.90;99.90
2967;DHT22;1493;51.496;7.210;2023-03-11T02:39:45;1.70;99.90
2967;DHT22;1493;51.496;7.210;2023-03-11T02:42:16;1.70;99.90
2967;DHT22;1493;51.496;7.210;2023-03-11T02:44:47;1.60;99.90
2967;DHT22;1493;51.496;7.210;2023-03-11T02:47:15;1.50;99.90
2967;DHT22;1493;51.496;7.210;2023-03-11T02:49:42;1.50;99.90
2967;DHT22;1493;51.496;7.210;2023-03-11T02:52:09;1.40;99.90
2967;DHT22;1493;51.496;7.210;2023-03-11T02:54:37;1.40;99.90
2967;DHT22;1493;51.496;7.210;2023-03-11T02:57:04;1.30;99.90
2967;DHT22;1493;51.496;7.210;2023-03-11T02:59:31;1.30;99.90
2967;DHT22;1493;51.496;7.210;2023-03-11T03:01:59;1.30;99.90
2967;DHT22;1493;51.496;7.210;2023-03-11T03:04:26;1.30;99.90
2967;DHT22;1493;51.496;7.210;2023-03-11T03:06:52;1.20;99.90
2967;DHT22;1493;51.496;7.210;2023-03-11T03:09:19;1.20;99.90
2967;DHT22;1493;51.496;7.210;2023-03-11T03:11:46;1.10;99.90
2967;DHT22;1493;51.496;7.210;2023-03-11T03:14:13;1.10;99.90
2967;DHT22;1493;51.496;7.210;2023-03-11T03:16:40;1.10;99.90
2967;DHT22;1493;51.496;7.210;2023-03-11T03:19:08;1.10;99.90
2967;DHT22;1493;51.496;7.210;2023-03-11T03:21:34;1.10;99.90
2967;DHT22;1493;51.496;7.210;2023-03-11T03:24:01;1.10;99.90
2967;DHT22;1493;51.496;7.210;2023-03-11T03:26:28;1.20;99.90
2967;DHT22;1493;51.496;7.210;2023-03-11T03:28:55;1.20;99.90
2967;DHT22;1493;51.496;7.210;2023-03-11T03:31:22;1.30;99.90
2967;DHT22;1493;51.496;7.210;2023-03-11T03:33:49;1.40;99.90
2967;DHT22;1493;51.496;7.210;2023-03-11T03:36:17;1.50;99.90
2967;DHT22;1493;51.496;7.210;2023-03-11T03:38:44;1.50;99.90
2967;DHT22;1493;51.496;7.210;2023-03-11T03:41:12;1.60;99.90
2967;DHT22;1493;51.496;7.210;2023-03-11T03:43:39;1.60;99.90
2967;DHT22;1493;51.496;7.210;2023-03-11T03:46:06;1.70;99.90
2967;DHT22;1493;51.496;7.210;2023-03-11T03:48:34;1.80;99.90
2967;DHT22;1493;51.496;7.210;2023-03-11T03:51:05;1.70;99.90
2967;DHT22;1493;51.496;7.210;2023-03-11T03:53:34;1.70;99.90
2967;DHT22;1493;51.496;7.210;2023-03-11T03:56:02;1.70;99.90
2967;DHT22;1493;51.496;7.210;2023-03-11T03:58:29;1.70;99.90
2967;DHT22;1493;51.496;7.210;2023-03-11T04:00:56;1.70;99.90
2967;DHT22;1493;51.496;7.210;2023-03-11T04:03:23;1.80;99.90
2967;DHT22;1493;51.496;7.210;2023-03-11T04:05:50;1.70;99.90
2967;DHT22;1493;51.496;7.210;2023-03-11T04:08:17;1.80;99.90
2967;DHT22;1493;51.496;7.210;2023-03-11T04:10:55;1.80;99.90
2967;DHT22;1493;51.496;7.210;2023-03-11T04:13:22;1.90;99.90
2967;DHT22;1493;51.496;7.210;2023-03-11T04:15:49;2.00;99.90
2967;DHT22;1493;51.496;7.210;2023-03-11T04:18:16;2.00;99.90
2967;DHT22;1493;51.496;7.210;2023-03-11T04:20:42;1.90;99.90
2967;DHT22;1493;51.496;7.210;2023-03-11T04:23:09;1.90;99.90
2967;DHT22;1493;51.496;7.210;2023-03-11T04:25:37;2.00;99.90
2967;DHT22;1493;51.496;7.210;2023-03-11T04:28:05;2.00;99.90
2967;DHT22;1493;51.496;7.210;2023-03-11T04:30:32;2.00;99.90
2967;DHT22;1493;51.496;7.210;2023-03-11T04:32:59;2.00;99.90
2967;DHT22;1493;51.496;7.210;2023-03-11T04:35:29;2.00;99.90
2967;DHT22;1493;51.496;7.210;2023-03-11T04:37:55;2.10;99.90
2967;DHT22;1493;51.496;7.210;2023-03-11T04:40:22;2.00;99.90
2967;DHT22;1493;51.496;7.210;2023-03-11T04:42:49;2.00;99.90
2967;DHT22;1493;51.496;7.210;2023-03-11T04:45:17;2.00;99.90
2967;DHT22;1493;51.496;7.210;2023-03-11T04:47:46;2.00;99.90
2967;DHT22;1493;51.496;7.210;2023-03-11T04:50:13;1.90;99.90
2967;DHT22;1493;51.496;7.210;2023-03-11T04:52:40;2.00;99.90
2967;DHT22;1493;51.496;7.210;2023-03-11T04:55:08;2.00;99.90
2967;DHT22;1493;51.496;7.210;2023-03-11T04:57:35;2.10;99.90
2967;DHT22;1493;51.496;7.210;2023-03-11T05:00:02;2.10;99.90
2967;DHT22;1493;51.496;7.210;2023-03-11T05:02:34;2.10;98.10
2967;DHT22;1493;51.496;7.210;2023-03-11T05:05:01;2.10;98.60
2967;DHT22;1493;51.496;7.210;2023-03-11T05:07:28;2.10;95.70
2967;DHT22;1493;51.496;7.210;2023-03-11T05:09:55;2.00;94.40
2967;DHT22;1493;51.496;7.210;2023-03-11T05:12:21;2.00;99.90
2967;DHT22;1493;51.496;7.210;2023-03-11T05:14:48;2.10;99.90
2967;DHT22;1493;51.496;7.210;2023-03-11T05:17:15;2.10;99.90
2967;DHT22;1493;51.496;7.210;2023-03-11T05:19:45;2.10;99.90
2967;DHT22;1493;51.496;7.210;2023-03-11T05:22:13;2.10;99.90
2967;DHT22;1493;51.496;7.210;2023-03-11T05:24:40;2.10;94.90
2967;DHT22;1493;51.496;7.210;2023-03-11T05:27:07;2.10;98.30
2967;DHT22;1493;51.496;7.210;2023-03-11T05:29:33;2.00;92.50
2967;DHT22;1493;51.496;7.210;2023-03-11T05:32:00;1.90;75.40
2967;DHT22;1493;51.496;7.210;2023-03-11T05:34:27;1.90;99.90
2967;DHT22;1493;51.496;7.210;2023-03-11T05:36:55;1.80;98.00
2967;DHT22;1493;51.496;7.210;2023-03-11T05:39:22;1.80;97.60
2967;DHT22;1493;51.496;7.210;2023-03-11T05:41:49;1.80;99.90
2967;DHT22;1493;51.496;7.210;2023-03-11T05:44:15;1.80;99.90
2967;DHT22;1493;51.496;7.210;2023-03-11T05:46:42;1.70;99.90
2967;DHT22;1493;51.496;7.210;2023-03-11T05:49:09;1.70;99.90
2967;DHT22;1493;51.496;7.210;2023-03-11T05:51:36;1.70;99.90
2967;DHT22;1493;51.496;7.210;2023-03-11T05:54:04;1.70;99.90
2967;DHT22;1493;51.496;7.210;2023-03-11T05:56:36;1.70;99.90
2967;DHT22;1493;51.496;7.210;2023-03-11T05:59:02;1.70;99.90
2967;DHT22;1493;51.496;7.210;2023-03-11T06:01:29;1.70;99.90
2967;DHT22;1493;51.496;7.210;2023-03-11T06:03:56;1.70;99.90
2967;DHT22;1493;51.496;7.210;2023-03-11T06:06:23;1.80;99.90
2967;DHT22;1493;51.496;7.210;2023-03-11T06:08:50;1.80;99.90
2967;DHT22;1493;51.496;7.210;2023-03-11T06:11:18;1.90;99.90
2967;DHT22;1493;51.496;7.210;2023-03-11T06:13:45;1.90;99.90
2967;DHT22;1493;51.496;7.210;2023-03-11T06:16:12;2.00;99.90
2967;DHT22;1493;51.496;7.210;2023-03-11T06:18:38;1.90;99.90
2967;DHT22;1493;51.496;7.210;2023-03-11T06:21:05;1.90;99.90
2967;DHT22;1493;51.496;7.210;2023-03-11T06:23:33;2.00;99.90
2967;DHT22;1493;51.496;7.210;2023-03-11T06:26:01;1.90;99.90
2967;DHT22;1493;51.496;7.210;2023-03-11T06:28:30;1.80;99.90
2967;DHT22;1493;51.496;7.210;2023-03-11T06:31:06;1.80;99.90
2967;DHT22;1493;51.496;7.210;2023-03-11T06:33:33;1.80;99.90
2967;DHT22;1493;51.496;7.210;2023-03-11T06:36:01;1.80;99.90
2967;DHT22;1493;51.496;7.210;2023-03-11T06:38:28;1.70;99.90
2967;DHT22;1493;51.496;7.210;2023-03-11T06:40:58;1.60;93.90
2967;DHT22;1493;51.496;7.210;2023-03-11T06:43:24;1.60;98.40
2967;DHT22;1493;51.496;7.210;2023-03-11T06:45:53;1.70;99.90
2967;DHT22;1493;51.496;7.210;2023-03-11T06:48:20;1.70;99.90
2967;DHT22;1493;51.496;7.210;2023-03-11T06:50:53;1.80;99.90
2967;DHT22;1493;51.496;7.210;2023-03-11T06:53:20;1.80;99.90
2967;DHT22;1493;51.496;7.210;2023-03-11T06:55:57;1.90;99.90
2967;DHT22;1493;51.496;7.210;2023-03-11T06:58:24;1.90;99.90
2967;DHT22;1493;51.496;7.210;2023-03-11T07:00:52;2.10;99.90
2967;DHT22;1493;51.496;7.210;2023-03-11T07:03:19;2.10;83.50
2967;DHT22;1493;51.496;7.210;2023-03-11T07:05:49;2.20;41.60
2967;DHT22;1493;51.496;7.210;2023-03-11T07:08:16;2.20;22.80
2967;DHT22;1493;51.496;7.210;2023-03-11T07:10:43;2.10;23.00
2967;DHT22;1493;51.496;7.210;2023-03-11T07:13:11;2.00;25.60
2967;DHT22;1493;51.496;7.210;2023-03-11T07:15:37;1.90;14.50
2967;DHT22;1493;51.496;7.210;2023-03-11T07:18:06;1.90;18.60
2967;DHT22;1493;51.496;7.210;2023-03-11T07:20:33;1.90;12.50
2967;DHT22;1493;51.496;7.210;2023-03-11T07:22:59;1.90;20.30
2967;DHT22;1493;51.496;7.210;2023-03-11T07:25:26;2.00;19.00
2967;DHT22;1493;51.496;7.210;2023-03-11T07:27:53;2.00;13.90
2967;DHT22;1493;51.496;7.210;2023-03-11T07:30:20;2.00;3.40
2967;DHT22;1493;51.496;7.210;2023-03-11T07:32:48;2.00;1.00
2967;DHT22;1493;51.496;7.210;2023-03-11T07:35:16;2.00;1.00
2967;DHT22;1493;51.496;7.210;2023-03-11T07:37:43;2.10;1.00
2967;DHT22;1493;51.496;7.210;2023-03-11T07:40:10;2.10;1.00
2967;DHT22;1493;51.496;7.210;2023-03-11T07:42:37;2.20;1.00
2967;DHT22;1493;51.496;7.210;2023-03-11T07:45:05;2.20;1.00
2967;DHT22;1493;51.496;7.210;2023-03-11T07:47:32;2.30;1.00
2967;DHT22;1493;51.496;7.210;2023-03-11T07:49:59;2.30;1.00
2967;DHT22;1493;51.496;7.210;2023-03-11T07:52:31;2.40;1.00
2967;DHT22;1493;51.496;7.210;2023-03-11T07:54:58;2.40;1.00
2967;DHT22;1493;51.496;7.210;2023-03-11T07:57:25;2.40;1.00
2967;DHT22;1493;51.496;7.210;2023-03-11T07:59:52;2.50;1.00
2967;DHT22;1493;51.496;7.210;2023-03-11T08:02:18;2.60;1.00
2967;DHT22;1493;51.496;7.210;2023-03-11T08:04:45;2.70;1.00
2967;DHT22;1493;51.496;7.210;2023-03-11T08:07:12;2.70;1.00
2967;DHT22;1493;51.496;7.210;2023-03-11T08:09:40;2.70;1.00
2967;DHT22;1493;51.496;7.210;2023-03-11T08:12:08;2.70;1.00
2967;DHT22;1493;51.496;7.210;2023-03-11T08:14:35;2.80;1.00
2967;DHT22;1493;51.496;7.210;2023-03-11T08:17:03;3.10;1.00
2967;DHT22;1493;51.496;7.210;2023-03-11T08:19:30;3.30;1.00
2967;DHT22;1493;51.496;7.210;2023-03-11T08:21:59;3.60;99.90
2967;DHT22;1493;51.496;7.210;2023-03-11T08:24:26;3.80;99.90
2967;DHT22;1493;51.496;7.210;2023-03-11T08:26:54;4.00;1.00
2967;DHT22;1493;51.496;7.210;2023-03-11T08:29:21;3.90;1.00
2967;DHT22;1493;51.496;7.210;2023-03-11T08:31:48;4.00;1.00
2967;DHT22;1493;51.496;7.210;2023-03-11T08:34:15;4.10;99.90
2967;DHT22;1493;51.496;7.210;2023-03-11T08:36:42;4.10;99.90
2967;DHT22;1493;51.496;7.210;2023-03-11T08:39:09;4.20;99.90
2967;DHT22;1493;51.496;7.210;2023-03-11T08:41:36;4.40;1.00
2967;DHT22;1493;51.496;7.210;2023-03-11T08:44:04;4.50;7.50
2967;DHT22;1493;51.496;7.210;2023-03-11T08:46:33;4.60;99.90
2967;DHT22;1493;51.496;7.210;2023-03-11T08:49:01;4.60;99.90
2967;DHT22;1493;51.496;7.210;2023-03-11T08:51:30;4.60;1.00
2967;DHT22;1493;51.496;7.210;2023-03-11T08:53:58;4.80;1.00
2967;DHT22;1493;51.496;7.210;2023-03-11T08:56:25;5.10;1.00
2967;DHT22;1493;51.496;7.210;2023-03-11T08:58:52;5.80;99.90
2967;DHT22;1493;51.496;7.210;2023-03-11T09:01:20;6.40;99.90
2967;DHT22;1493;51.496;7.210;2023-03-11T09:03:48;6.90;22.30
2967;DHT22;1493;51.496;7.210;2023-03-11T09:06:15;6.90;99.90
2967;DHT22;1493;51.496;7.210;2023-03-11T09:08:43;7.00;1.00
2967;DHT22;1493;51.496;7.210;2023-03-11T09:11:10;6.90;1.00
2967;DHT22;1493;51.496;7.210;2023-03-11T09:13:38;7.40;1.00
2967;DHT22;1493;51.496;7.210;2023-03-11T09:16:06;8.70;1.00
2967;DHT22;1493;51.496;7.210;2023-03-11T09:18:34;9.00;1.00
2967;DHT22;1493;51.496;7.210;2023-03-11T09:21:01;9.20;1.00
2967;DHT22;1493;51.496;7.210;2023-03-11T09:23:28;10.00;1.00
2967;DHT22;1493;51.496;7.210;2023-03-11T09:25:55;9.90;1.00
2967;DHT22;1493;51.496;7.210;2023-03-11T09:28:22;9.50;1.00
2967;DHT22;1493;51.496;7.210;2023-03-11T09:30:50;8.50;1.00
2967;DHT22;1493;51.496;7.210;2023-03-11T09:33:16;7.90;1.00
2967;DHT22;1493;51.496;7.210;2023-03-11T09:35:45;7.80;1.00
2967;DHT22;1493;51.496;7.210;2023-03-11T09:38:11;7.40;1.00
2967;DHT22;1493;51.496;7.210;2023-03-11T09:40:52;8.00;1.00
2967;DHT22;1493;51.496;7.210;2023-03-11T09:43:31;10.20;1.00
2967;DHT22;1493;51.496;7.210;2023-03-11T09:46:19;11.00;1.00
2967;DHT22;1493;51.496;7.210;2023-03-11T09:48:56;10.40;1.00
2967;DHT22;1493;51.496;7.210;2023-03-11T09:51:28;10.60;1.00
2967;DHT22;1493;51.496;7.210;2023-03-11T09:54:00;9.90;1.00
2967;DHT22;1493;51.496;7.210;2023-03-11T09:56:28;9.80;1.00
2967;DHT22;1493;51.496;7.210;2023-03-11T09:59:00;11.20;1.00
2967;DHT22;1493;51.496;7.210;2023-03-11T10:01:31;12.90;1.00
2967;DHT22;1493;51.496;7.210;2023-03-11T10:04:04;13.80;1.00
2967;DHT22;1493;51.496;7.210;2023-03-11T10:06:36;15.10;1.00
2967;DHT22;1493;51.496;7.210;2023-03-11T10:09:09;14.50;1.00
2967;DHT22;1493;51.496;7.210;2023-03-11T10:11:55;17.30;1.00
2967;DHT22;1493;51.496;7.210;2023-03-11T10:14:38;16.40;1.00
2967;DHT22;1493;51.496;7.210;2023-03-11T10:17:13;14.10;1.00
2967;DHT22;1493;51.496;7.210;2023-03-11T10:19:47;15.70;1.00
2967;DHT22;1493;51.496;7.210;2023-03-11T10:22:23;17.60;1.00
2967;DHT22;1493;51.496;7.210;2023-03-11T10:25:02;18.40;1.00
2967;DHT22;1493;51.496;7.210;2023-03-11T10:27:34;18.10;1.00
2967;DHT22;1493;51.496;7.210;2023-03-11T10:30:08;19.90;1.00
2967;DHT22;1493;51.496;7.210;2023-03-11T10:32:41;20.00;1.00
2967;DHT22;1493;51.496;7.210;2023-03-11T10:35:16;20.50;1.00
2967;DHT22;1493;51.496;7.210;2023-03-11T10:37:49;18.60;1.00
2967;DHT22;1493;51.496;7.210;2023-03-11T10:40:25;19.10;1.00
2967;DHT22;1493;51.496;7.210;2023-03-11T10:42:54;18.10;1.00
2967;DHT22;1493;51.496;7.210;2023-03-11T10:45:23;18.20;1.00
2967;DHT22;1493;51.496;7.210;2023-03-11T10:47:51;18.10;1.00
2967;DHT22;1493;51.496;7.210;2023-03-11T10:50:18;15.00;99.90
2967;DHT22;1493;51.496;7.210;2023-03-11T10:53:05;14.60;99.90
2967;DHT22;1493;51.496;7.210;2023-03-11T10:55:32;16.20;99.90
2967;DHT22;1493;51.496;7.210;2023-03-11T10:58:11;17.00;99.90
2967;DHT22;1493;51.496;7.210;2023-03-11T11:00:38;18.40;1.00
2967;DHT22;1493;51.496;7.210;2023-03-11T11:03:14;19.80;1.00
2967;DHT22;1493;51.496;7.210;2023-03-11T11:05:42;21.20;1.00
2967;DHT22;1493;51.496;7.210;2023-03-11T11:08:13;22.10;1.00
2967;DHT22;1493;51.496;7.210;2023-03-11T11:10:49;22.70;1.00
2967;DHT22;1493;51.496;7.210;2023-03-11T11:13:18;22.50;1.00
2967;DHT22;1493;51.496;7.210;2023-03-11T11:15:56;21.10;1.00
2967;DHT22;1493;51.496;7.210;2023-03-11T11:18:26;18.40;99.90
2967;DHT22;1493;51.496;7.210;2023-03-11T11:20:57;18.20;99.90
2967;DHT22;1493;51.496;7.210;2023-03-11T11:23:31;18.60;99.90
2967;DHT22;1493;51.496;7.210;2023-03-11T11:26:00;19.60;99.90
2967;DHT22;1493;51.496;7.210;2023-03-11T11:28:30;19.40;99.90
2967;DHT22;1493;51.496;7.210;2023-03-11T11:30:58;19.10;99.90
2967;DHT22;1493;51.496;7.210;2023-03-11T11:33:28;18.80;99.90
2967;DHT22;1493;51.496;7.210;2023-03-11T11:35:56;17.20;99.90
2967;DHT22;1493;51.496;7.210;2023-03-11T11:38:27;16.00;99.90
2967;DHT22;1493;51.496;7.210;2023-03-11T11:40:56;14.10;99.90
2967;DHT22;1493;51.496;7.210;2023-03-11T11:43:43;13.40;99.90
2967;DHT22;1493;51.496;7.210;2023-03-11T11:46:18;12.10;99.90
2967;DHT22;1493;51.496;7.210;2023-03-11T11:48:51;11.60;99.90
2967;DHT22;1493;51.496;7.210;2023-03-11T11:51:22;11.40;99.90
2967;DHT22;1493;51.496;7.210;2023-03-11T11:53:57;11.80;99.90
2967;DHT22;1493;51.496;7.210;2023-03-11T11:56:25;13.30;99.90
2967;DHT22;1493;51.496;7.210;2023-03-11T11:58:52;15.30;99.90
2967;DHT22;1493;51.496;7.210;2023-03-11T12:01:29;16.00;99.90
2967;DHT22;1493;51.496;7.210;2023-03-11T12:09:52;16.30;99.90
2967;DHT22;1493;51.496;7.210;2023-03-11T12:12:26;16.20;99.90
2967;DHT22;1493;51.496;7.210;2023-03-11T12:15:00;16.40;99.90
2967;DHT22;1493;51.496;7.210;2023-03-11T12:17:34;18.70;99.90
2967;DHT22;1493;51.496;7.210;2023-03-11T12:20:05;21.60;99.90
2967;DHT22;1493;51.496;7.210;2023-03-11T12:25:44;24.20;1.00
2967;DHT22;1493;51.496;7.210;2023-03-11T12:28:18;26.20;1.00
2967;DHT22;1493;51.496;7.210;2023-03-11T12:30:48;25.10;1.00
2967;DHT22;1493;51.496;7.210;2023-03-11T12:33:24;25.50;1.00
2967;DHT22;1493;51.496;7.210;2023-03-11T12:35:55;26.00;1.00
2967;DHT22;1493;51.496;7.210;2023-03-11T12:38:27;26.40;1.00
2967;DHT22;1493;51.496;7.210;2023-03-11T12:41:06;26.90;1.00
2967;DHT22;1493;51.496;7.210;2023-03-11T12:47:02;24.10;1.00
2967;DHT22;1493;51.496;7.210;2023-03-11T12:49:30;23.50;99.90
2967;DHT22;1493;51.496;7.210;2023-03-11T12:52:05;22.10;99.90
2967;DHT22;1493;51.496;7.210;2023-03-11T12:54:45;21.50;99.90
2967;DHT22;1493;51.496;7.210;2023-03-11T12:57:28;20.40;99.90
2967;DHT22;1493;51.496;7.210;2023-03-11T13:00:11;18.80;99.90
2967;DHT22;1493;51.496;7.210;2023-03-11T13:05:53;20.80;99.90
2967;DHT22;1493;51.496;7.210;2023-03-11T13:08:23;20.90;99.90
2967;DHT22;1493;51.496;7.210;2023-03-11T13:10:52;18.70;99.90
2967;DHT22;1493;51.496;7.210;2023-03-11T13:13:37;15.60;99.90
2967;DHT22;1493;51.496;7.210;2023-03-11T13:16:34;16.50;99.90
2967;DHT22;1493;51.496;7.210;2023-03-11T13:19:32;19.10;99.90
2967;DHT22;1493;51.496;7.210;2023-03-11T13:22:01;20.70;99.90
2967;DHT22;1493;51.496;7.210;2023-03-11T13:24:49;21.60;99.90
2967;DHT22;1493;51.496;7.210;2023-03-11T13:27:27;22.10;99.90
2967;DHT22;1493;51.496;7.210;2023-03-11T13:30:09;19.80;99.90
2967;DHT22;1493;51.496;7.210;2023-03-11T13:32:53;19.30;99.90
2967;DHT22;1493;51.496;7.210;2023-03-11T13:35:35;21.40;99.90
2967;DHT22;1493;51.496;7.210;2023-03-11T13:38:36;20.70;99.90
2967;DHT22;1493;51.496;7.210;2023-03-11T13:41:13;16.50;99.90
2967;DHT22;1493;51.496;7.210;2023-03-11T13:43:44;14.70;99.90
2967;DHT22;1493;51.496;7.210;2023-03-11T13:46:23;14.50;99.90
2967;DHT22;1493;51.496;7.210;2023-03-11T13:49:03;15.80;99.90
2967;DHT22;1493;51.496;7.210;2023-03-11T13:51:36;19.30;99.90
2967;DHT22;1493;51.496;7.210;2023-03-11T13:54:07;20.60;99.90
2967;DHT22;1493;51.496;7.210;2023-03-11T13:56:42;19.60;99.90
2967;DHT22;1493;51.496;7.210;2023-03-11T13:59:15;21.20;99.90
2967;DHT22;1493;51.496;7.210;2023-03-11T14:01:49;21.80;99.90
2967;DHT22;1493;51.496;7.210;2023-03-11T14:04:19;21.70;99.90
2967;DHT22;1493;51.496;7.210;2023-03-11T14:06:50;22.60;99.90
2967;DHT22;1493;51.496;7.210;2023-03-11T14:09:22;23.30;99.90
2967;DHT22;1493;51.496;7.210;2023-03-11T14:11:49;23.70;99.90
2967;DHT22;1493;51.496;7.210;2023-03-11T14:14:31;24.10;99.90
2967;DHT22;1493;51.496;7.210;2023-03-11T14:17:03;23.80;99.90
2967;DHT22;1493;51.496;7.210;2023-03-11T14:19:30;23.50;99.90
2967;DHT22;1493;51.496;7.210;2023-03-11T14:21:57;23.70;99.90
2967;DHT22;1493;51.496;7.210;2023-03-11T14:24:27;22.80;99.90
2967;DHT22;1493;51.496;7.210;2023-03-11T14:26:56;22.10;99.90
2967;DHT22;1493;51.496;7.210;2023-03-11T14:29:30;21.00;99.90
2967;DHT22;1493;51.496;7.210;2023-03-11T14:31:58;19.00;99.90
2967;DHT22;1493;51.496;7.210;2023-03-11T14:34:27;18.30;99.90
2967;DHT22;1493;51.496;7.210;2023-03-11T14:36:57;16.40;99.90
2967;DHT22;1493;51.496;7.210;2023-03-11T14:39:27;14.70;99.90
2967;DHT22;1493;51.496;7.210;2023-03-11T14:41:58;14.80;99.90
2967;DHT22;1493;51.496;7.210;2023-03-11T14:44:27;14.90;99.90
2967;DHT22;1493;51.496;7.210;2023-03-11T14:47:04;14.20;99.90
2967;DHT22;1493;51.496;7.210;2023-03-11T14:49:33;13.70;99.90
2967;DHT22;1493;51.496;7.210;2023-03-11T14:52:03;13.10;99.90
2967;DHT22;1493;51.496;7.210;2023-03-11T14:54:34;12.50;99.90
2967;DHT22;1493;51.496;7.210;2023-03-11T14:57:05;12.00;99.90
2967;DHT22;1493;51.496;7.210;2023-03-11T14:59:34;11.40;99.90
2967;DHT22;1493;51.496;7.210;2023-03-11T15:02:21;10.80;99.90
2967;DHT22;1493;51.496;7.210;2023-03-11T15:04:52;10.70;99.90
2967;DHT22;1493;51.496;7.210;2023-03-11T15:07:20;10.30;99.90
2967;DHT22;1493;51.496;7.210;2023-03-11T15:09:47;10.00;99.90
2967;DHT22;1493;51.496;7.210;2023-03-11T15:12:30;9.50;99.90
2967;DHT22;1493;51.496;7.210;2023-03-11T15:14:57;9.40;99.90
2967;DHT22;1493;51.496;7.210;2023-03-11T15:17:26;9.30;99.90
2967;DHT22;1493;51.496;7.210;2023-03-11T15:19:56;9.40;99.90
2967;DHT22;1493;51.496;7.210;2023-03-11T15:22:24;9.40;99.90
2967;DHT22;1493;51.496;7.210;2023-03-11T15:24:53;9.20;99.90
2967;DHT22;1493;51.496;7.210;2023-03-11T15:27:27;9.20;99.90
2967;DHT22;1493;51.496;7.210;2023-03-11T15:29:55;9.20;99.90
2967;DHT22;1493;51.496;7.210;2023-03-11T15:32:24;8.70;99.90
2967;DHT22;1493;51.496;7.210;2023-03-11T15:35:00;8.80;99.90
2967;DHT22;1493;51.496;7.210;2023-03-11T15:37:27;9.00;99.90
2967;DHT22;1493;51.496;7.210;2023-03-11T15:39:56;8.90;99.90
2967;DHT22;1493;51.496;7.210;2023-03-11T15:42:24;9.00;99.90
2967;DHT22;1493;51.496;7.210;2023-03-11T15:45:10;9.10;99.90
2967;DHT22;1493;51.496;7.210;2023-03-11T15:47:38;8.70;99.90
2967;DHT22;1493;51.496;7.210;2023-03-11T15:50:21;8.70;99.90
2967;DHT22;1493;51.496;7.210;2023-03-11T15:52:49;8.70;99.90
2967;DHT22;1493;51.496;7.210;2023-03-11T15:55:16;8.60;99.90
2967;DHT22;1493;51.496;7.210;2023-03-11T15:57:45;8.70;99.90
2967;DHT22;1493;51.496;7.210;2023-03-11T16:00:18;8.60;99.90
2967;DHT22;1493;51.496;7.210;2023-03-11T16:02:47;8.70;99.90
2967;DHT22;1493;51.496;7.210;2023-03-11T16:05:17;8.60;99.90
2967;DHT22;1493;51.496;7.210;2023-03-11T16:07:45;8.60;99.90
2967;DHT22;1493;51.496;7.210;2023-03-11T16:10:13;8.60;99.90
2967;DHT22;1493;51.496;7.210;2023-03-11T16:12:40;8.70;99.90
2967;DHT22;1493;51.496;7.210;2023-03-11T16:15:18;8.70;99.90
2967;DHT22;1493;51.496;7.210;2023-03-11T16:17:46;8.60;99.90
2967;DHT22;1493;51.496;7.210;2023-03-11T16:20:15;8.50;99.90
2967;DHT22;1493;51.496;7.210;2023-03-11T16:22:42;8.40;99.90
2967;DHT22;1493;51.496;7.210;2023-03-11T16:25:17;8.40;99.90
2967;DHT22;1493;51.496;7.210;2023-03-11T16:27:44;8.30;99.90
2967;DHT22;1493;51.496;7.210;2023-03-11T16:30:12;8.10;99.90
2967;DHT22;1493;51.496;7.210;2023-03-11T16:32:40;8.00;99.90
2967;DHT22;1493;51.496;7.210;2023-03-11T16:35:08;7.90;99.90
2967;DHT22;1493;51.496;7.210;2023-03-11T16:37:36;7.90;99.90
2967;DHT22;1493;51.496;7.210;2023-03-11T16:40:04;7.90;99.90
2967;DHT22;1493;51.496;7.210;2023-03-11T16:42:32;7.70;99.90
2967;DHT22;1493;51.496;7.210;2023-03-11T16:44:59;7.70;99.90
2967;DHT22;1493;51.496;7.210;2023-03-11T16:47:25;7.70;99.90
2967;DHT22;1493;51.496;7.210;2023-03-11T16:49:55;7.60;99.90
2967;DHT22;1493;51.496;7.210;2023-03-11T16:52:21;7.60;99.90